sensor_id;sensor_type;location;lat;lon;timestamp;temperature;humidity
65058;HTU21D;51644;51.068;5.860;2023-04-03T00:00:16;4.16;76.63
65058;HTU21D;51644;51.068;5.860;2023-04-03T00:01:16;4.14;76.73
65058;HTU21D;51644;51.068;5.860;2023-04-03T00:02:14;4.13;76.81
65058;HTU21D;51644;51.068;5.860;2023-04-03T00:03:13;4.12;76.87
65058;HTU21D;51644;51.068;5.860;2023-04-03T00:04:12;4.10;76.88
65058;HTU21D;51644;51.068;5.860;2023-04-03T00:05:13;4.10;76.89
65058;HTU21D;51644;51.068;5.860;2023-04-03T00:06:12;4.09;76.94
65058;HTU21D;51644;51.068;5.860;2023-04-03T00:07:11;4.07;76.97
65058;HTU21D;51644;51.068;5.860;2023-04-03T00:08:10;4.05;76.96
65058;HTU21D;51644;51.068;5.860;2023-04-03T00:09:09;4.04;76.95
65058;HTU21D;51644;51.068;5.860;2023-04-03T00:10:08;4.03;76.96
65058;HTU21D;51644;51.068;5.860;2023-04-03T00:11:07;4.02;76.98
65058;HTU21D;51644;51.068;5.860;2023-04-03T00:12:06;4.01;77.01
65058;HTU21D;51644;51.068;5.860;2023-04-03T00:13:06;4.01;77.02
65058;HTU21D;51644;51.068;5.860;2023-04-03T00:14:04;3.99;77.06
65058;HTU21D;51644;51.068;5.860;2023-04-03T00:15:04;3.98;77.10
65058;HTU21D;51644;51.068;5.860;2023-04-03T00:16:03;3.98;77.17
65058;HTU21D;51644;51.068;5.860;2023-04-03T00:17:02;3.95;77.27
65058;HTU21D;51644;51.068;5.860;2023-04-03T00:18:02;3.97;77.34
65058;HTU21D;51644;51.068;5.860;2023-04-03T00:19:10;3.95;77.34
65058;HTU21D;51644;51.068;5.860;2023-04-03T00:20:10;3.94;77.34
65058;HTU21D;51644;51.068;5.860;2023-04-03T00:21:12;3.95;77.27
65058;HTU21D;51644;51.068;5.860;2023-04-03T00:22:11;3.94;77.18
65058;HTU21D;51644;51.068;5.860;2023-04-03T00:23:10;3.94;77.10
65058;HTU21D;51644;51.068;5.860;2023-04-03T00:24:09;3.94;77.08
65058;HTU21D;51644;51.068;5.860;2023-04-03T00:25:08;3.94;77.02
65058;HTU21D;51644;51.068;5.860;2023-04-03T00:26:07;3.93;77.01
65058;HTU21D;51644;51.068;5.860;2023-04-03T00:27:06;3.92;77.00
65058;HTU21D;51644;51.068;5.860;2023-04-03T00:28:05;3.93;76.98
65058;HTU21D;51644;51.068;5.860;2023-04-03T00:29:03;3.94;76.98
65058;HTU21D;51644;51.068;5.860;2023-04-03T00:30:02;3.93;76.94
65058;HTU21D;51644;51.068;5.860;2023-04-03T00:31:01;3.92;76.86
65058;HTU21D;51644;51.068;5.860;2023-04-03T00:32:00;3.94;76.79
65058;HTU21D;51644;51.068;5.860;2023-04-03T00:33:01;3.94;76.73
65058;HTU21D;51644;51.068;5.860;2023-04-03T00:34:00;3.93;76.59
65058;HTU21D;51644;51.068;5.860;2023-04-03T00:35:00;3.95;76.53
65058;HTU21D;51644;51.068;5.860;2023-04-03T00:35:58;3.94;76.54
65058;HTU21D;51644;51.068;5.860;2023-04-03T00:36:57;3.94;76.55
65058;HTU21D;51644;51.068;5.860;2023-04-03T00:37:57;3.95;76.56
65058;HTU21D;51644;51.068;5.860;2023-04-03T00:38:56;3.93;76.48
65058;HTU21D;51644;51.068;5.860;2023-04-03T00:39:55;3.94;76.41
65058;HTU21D;51644;51.068;5.860;2023-04-03T00:40:53;3.94;76.37
65058;HTU21D;51644;51.068;5.860;2023-04-03T00:41:52;3.94;76.38
65058;HTU21D;51644;51.068;5.860;2023-04-03T00:42:59;3.91;76.46
65058;HTU21D;51644;51.068;5.860;2023-04-03T00:43:57;3.90;76.57
65058;HTU21D;51644;51.068;5.860;2023-04-03T00:45:57;3.86;76.92
65058;HTU21D;51644;51.068;5.860;2023-04-03T00:46:56;3.83;77.04
65058;HTU21D;51644;51.068;5.860;2023-04-03T00:47:55;3.80;77.16
65058;HTU21D;51644;51.068;5.860;2023-04-03T00:48:55;3.77;77.30
65058;HTU21D;51644;51.068;5.860;2023-04-03T00:49:54;3.75;77.34
65058;HTU21D;51644;51.068;5.860;2023-04-03T00:50:53;3.74;77.34
65058;HTU21D;51644;51.068;5.860;2023-04-03T00:51:53;3.74;77.37
65058;HTU21D;51644;51.068;5.860;2023-04-03T00:52:54;3.72;77.39
65058;HTU21D;51644;51.068;5.860;2023-04-03T00:53:59;3.71;77.44
65058;HTU21D;51644;51.068;5.860;2023-04-03T00:55:04;3.71;77.53
65058;HTU21D;51644;51.068;5.860;2023-04-03T00:56:10;3.69;77.67
65058;HTU21D;51644;51.068;5.860;2023-04-03T00:57:10;3.69;77.73
65058;HTU21D;51644;51.068;5.860;2023-04-03T00:58:11;3.65;77.73
65058;HTU21D;51644;51.068;5.860;2023-04-03T00:59:14;3.64;77.69
65058;HTU21D;51644;51.068;5.860;2023-04-03T01:00:19;3.65;77.71
65058;HTU21D;51644;51.068;5.860;2023-04-03T01:01:23;3.63;77.72
65058;HTU21D;51644;51.068;5.860;2023-04-03T01:02:23;3.62;77.70
65058;HTU21D;51644;51.068;5.860;2023-04-03T01:03:24;3.65;77.60
65058;HTU21D;51644;51.068;5.860;2023-04-03T01:04:39;3.65;77.56
65058;HTU21D;51644;51.068;5.860;2023-04-03T01:05:40;3.65;77.56
65058;HTU21D;51644;51.068;5.860;2023-04-03T01:06:38;3.64;77.58
65058;HTU21D;51644;51.068;5.860;2023-04-03T01:07:40;3.64;77.53
65058;HTU21D;51644;51.068;5.860;2023-04-03T01:08:41;3.64;77.50
65058;HTU21D;51644;51.068;5.860;2023-04-03T01:09:41;3.62;77.56
65058;HTU21D;51644;51.068;5.860;2023-04-03T01:10:41;3.60;77.62
65058;HTU21D;51644;51.068;5.860;2023-04-03T01:11:42;3.57;77.63
65058;HTU21D;51644;51.068;5.860;2023-04-03T01:12:44;3.55;77.68
65058;HTU21D;51644;51.068;5.860;2023-04-03T01:13:44;3.54;77.75
65058;HTU21D;51644;51.068;5.860;2023-04-03T01:14:45;3.50;77.83
65058;HTU21D;51644;51.068;5.860;2023-04-03T01:15:44;3.47;77.94
65058;HTU21D;51644;51.068;5.860;2023-04-03T01:16:52;3.47;78.05
65058;HTU21D;51644;51.068;5.860;2023-04-03T01:17:53;3.47;78.14
65058;HTU21D;51644;51.068;5.860;2023-04-03T01:18:54;3.46;78.24
65058;HTU21D;51644;51.068;5.860;2023-04-03T01:25:01;3.41;78.49
65058;HTU21D;51644;51.068;5.860;2023-04-03T01:25:59;3.40;78.55
65058;HTU21D;51644;51.068;5.860;2023-04-03T01:26:59;3.39;78.61
65058;HTU21D;51644;51.068;5.860;2023-04-03T01:27:59;3.36;78.66
65058;HTU21D;51644;51.068;5.860;2023-04-03T01:28:59;3.36;78.73
65058;HTU21D;51644;51.068;5.860;2023-04-03T01:30:02;3.34;78.78
65058;HTU21D;51644;51.068;5.860;2023-04-03T01:32:02;3.33;78.84
65058;HTU21D;51644;51.068;5.860;2023-04-03T01:33:02;3.33;78.88
65058;HTU21D;51644;51.068;5.860;2023-04-03T01:34:02;3.33;78.90
65058;HTU21D;51644;51.068;5.860;2023-04-03T01:35:03;3.33;78.95
65058;HTU21D;51644;51.068;5.860;2023-04-03T01:36:03;3.32;78.99
65058;HTU21D;51644;51.068;5.860;2023-04-03T01:37:02;3.31;79.03
65058;HTU21D;51644;51.068;5.860;2023-04-03T01:38:00;3.30;79.07
65058;HTU21D;51644;51.068;5.860;2023-04-03T01:39:00;3.28;79.11
65058;HTU21D;51644;51.068;5.860;2023-04-03T01:39:59;3.28;79.15
65058;HTU21D;51644;51.068;5.860;2023-04-03T01:41:01;3.27;79.15
65058;HTU21D;51644;51.068;5.860;2023-04-03T01:42:01;3.27;79.14
65058;HTU21D;51644;51.068;5.860;2023-04-03T01:43:03;3.26;79.11
65058;HTU21D;51644;51.068;5.860;2023-04-03T01:44:02;3.25;79.09
65058;HTU21D;51644;51.068;5.860;2023-04-03T01:45:02;3.24;79.07
65058;HTU21D;51644;51.068;5.860;2023-04-03T01:46:01;3.24;79.07
65058;HTU21D;51644;51.068;5.860;2023-04-03T01:47:00;3.23;79.05
65058;HTU21D;51644;51.068;5.860;2023-04-03T01:48:01;3.21;79.00
65058;HTU21D;51644;51.068;5.860;2023-04-03T01:48:59;3.20;79.02
65058;HTU21D;51644;51.068;5.860;2023-04-03T01:49:58;3.19;79.09
65058;HTU21D;51644;51.068;5.860;2023-04-03T01:50:57;3.17;79.10
65058;HTU21D;51644;51.068;5.860;2023-04-03T01:51:59;3.16;79.08
65058;HTU21D;51644;51.068;5.860;2023-04-03T01:52:58;3.15;79.01
65058;HTU21D;51644;51.068;5.860;2023-04-03T01:53:56;3.14;78.98
65058;HTU21D;51644;51.068;5.860;2023-04-03T01:54:55;3.14;79.04
65058;HTU21D;51644;51.068;5.860;2023-04-03T01:55:54;3.13;79.11
65058;HTU21D;51644;51.068;5.860;2023-04-03T01:56:53;3.13;79.17
65058;HTU21D;51644;51.068;5.860;2023-04-03T01:57:53;3.13;79.27
65058;HTU21D;51644;51.068;5.860;2023-04-03T01:58:55;3.11;79.30
65058;HTU21D;51644;51.068;5.860;2023-04-03T01:59:53;3.11;79.35
65058;HTU21D;51644;51.068;5.860;2023-04-03T02:00:52;3.11;79.39
65058;HTU21D;51644;51.068;5.860;2023-04-03T02:01:51;3.11;79.43
65058;HTU21D;51644;51.068;5.860;2023-04-03T02:02:50;3.12;79.46
65058;HTU21D;51644;51.068;5.860;2023-04-03T02:03:48;3.11;79.55
65058;HTU21D;51644;51.068;5.860;2023-04-03T02:04:50;3.11;79.55
65058;HTU21D;51644;51.068;5.860;2023-04-03T02:05:50;3.11;79.54
65058;HTU21D;51644;51.068;5.860;2023-04-03T02:06:48;3.11;79.49
65058;HTU21D;51644;51.068;5.860;2023-04-03T02:07:47;3.10;79.48
65058;HTU21D;51644;51.068;5.860;2023-04-03T02:08:46;3.12;79.51
65058;HTU21D;51644;51.068;5.860;2023-04-03T02:09:45;3.11;79.54
65058;HTU21D;51644;51.068;5.860;2023-04-03T02:10:47;3.11;79.56
65058;HTU21D;51644;51.068;5.860;2023-04-03T02:11:46;3.10;79.62
65058;HTU21D;51644;51.068;5.860;2023-04-03T02:12:48;3.09;79.63
65058;HTU21D;51644;51.068;5.860;2023-04-03T02:13:47;3.08;79.60
65058;HTU21D;51644;51.068;5.860;2023-04-03T02:14:45;3.05;79.62
65058;HTU21D;51644;51.068;5.860;2023-04-03T02:15:44;3.02;79.66
65058;HTU21D;51644;51.068;5.860;2023-04-03T02:16:43;3.00;79.72
65058;HTU21D;51644;51.068;5.860;2023-04-03T02:17:42;2.99;79.78
65058;HTU21D;51644;51.068;5.860;2023-04-03T02:18:41;2.98;79.84
65058;HTU21D;51644;51.068;5.860;2023-04-03T02:19:39;2.98;79.88
65058;HTU21D;51644;51.068;5.860;2023-04-03T02:20:38;2.97;79.90
65058;HTU21D;51644;51.068;5.860;2023-04-03T02:21:37;2.98;79.93
65058;HTU21D;51644;51.068;5.860;2023-04-03T02:22:36;2.97;79.95
65058;HTU21D;51644;51.068;5.860;2023-04-03T02:23:34;2.96;79.95
65058;HTU21D;51644;51.068;5.860;2023-04-03T02:24:35;2.95;79.96
65058;HTU21D;51644;51.068;5.860;2023-04-03T02:25:34;2.94;79.99
65058;HTU21D;51644;51.068;5.860;2023-04-03T02:26:33;2.93;80.05
65058;HTU21D;51644;51.068;5.860;2023-04-03T02:27:32;2.91;80.12
65058;HTU21D;51644;51.068;5.860;2023-04-03T02:28:30;2.90;80.14
65058;HTU21D;51644;51.068;5.860;2023-04-03T02:29:32;2.88;80.18
65058;HTU21D;51644;51.068;5.860;2023-04-03T02:30:31;2.85;80.24
65058;HTU21D;51644;51.068;5.860;2023-04-03T02:31:30;2.82;80.24
65058;HTU21D;51644;51.068;5.860;2023-04-03T02:32:30;2.80;80.29
65058;HTU21D;51644;51.068;5.860;2023-04-03T02:33:30;2.80;80.31
65058;HTU21D;51644;51.068;5.860;2023-04-03T02:34:28;2.76;80.36
65058;HTU21D;51644;51.068;5.860;2023-04-03T02:35:29;2.76;80.37
65058;HTU21D;51644;51.068;5.860;2023-04-03T02:36:29;2.73;80.37
65058;HTU21D;51644;51.068;5.860;2023-04-03T02:37:31;2.72;80.33
65058;HTU21D;51644;51.068;5.860;2023-04-03T02:38:29;2.71;80.27
65058;HTU21D;51644;51.068;5.860;2023-04-03T02:39:28;2.70;80.26
65058;HTU21D;51644;51.068;5.860;2023-04-03T02:40:28;2.70;80.24
65058;HTU21D;51644;51.068;5.860;2023-04-03T02:41:27;2.68;80.24
65058;HTU21D;51644;51.068;5.860;2023-04-03T02:42:34;2.67;80.27
65058;HTU21D;51644;51.068;5.860;2023-04-03T02:43:33;2.66;80.26
65058;HTU21D;51644;51.068;5.860;2023-04-03T02:44:32;2.65;80.27
65058;HTU21D;51644;51.068;5.860;2023-04-03T02:45:31;2.65;80.25
65058;HTU21D;51644;51.068;5.860;2023-04-03T02:46:29;2.68;80.20
65058;HTU21D;51644;51.068;5.860;2023-04-03T02:47:31;2.67;80.24
65058;HTU21D;51644;51.068;5.860;2023-04-03T02:48:30;2.68;80.28
65058;HTU21D;51644;51.068;5.860;2023-04-03T02:49:28;2.69;80.26
65058;HTU21D;51644;51.068;5.860;2023-04-03T02:50:28;2.70;80.20
65058;HTU21D;51644;51.068;5.860;2023-04-03T02:51:27;2.72;80.13
65058;HTU21D;51644;51.068;5.860;2023-04-03T02:52:29;2.74;80.01
65058;HTU21D;51644;51.068;5.860;2023-04-03T02:53:29;2.74;79.95
65058;HTU21D;51644;51.068;5.860;2023-04-03T02:54:29;2.74;79.92
65058;HTU21D;51644;51.068;5.860;2023-04-03T02:55:31;2.73;79.95
65058;HTU21D;51644;51.068;5.860;2023-04-03T02:56:30;2.73;79.97
65058;HTU21D;51644;51.068;5.860;2023-04-03T02:57:28;2.72;79.98
65058;HTU21D;51644;51.068;5.860;2023-04-03T02:58:27;2.70;80.02
65058;HTU21D;51644;51.068;5.860;2023-04-03T02:59:29;2.69;80.07
65058;HTU21D;51644;51.068;5.860;2023-04-03T03:00:28;2.68;80.06
65058;HTU21D;51644;51.068;5.860;2023-04-03T03:01:26;2.68;80.03
65058;HTU21D;51644;51.068;5.860;2023-04-03T03:02:29;2.66;80.04
65058;HTU21D;51644;51.068;5.860;2023-04-03T03:03:28;2.67;80.11
65058;HTU21D;51644;51.068;5.860;2023-04-03T03:04:26;2.66;80.20
65058;HTU21D;51644;51.068;5.860;2023-04-03T03:05:26;2.66;80.26
65058;HTU21D;51644;51.068;5.860;2023-04-03T03:06:24;2.67;80.27
65058;HTU21D;51644;51.068;5.860;2023-04-03T03:07:23;2.66;80.29
65058;HTU21D;51644;51.068;5.860;2023-04-03T03:08:22;2.65;80.30
65058;HTU21D;51644;51.068;5.860;2023-04-03T03:09:20;2.65;80.30
65058;HTU21D;51644;51.068;5.860;2023-04-03T03:10:19;2.64;80.35
65058;HTU21D;51644;51.068;5.860;2023-04-03T03:11:18;2.62;80.41
65058;HTU21D;51644;51.068;5.860;2023-04-03T03:12:17;2.61;80.44
65058;HTU21D;51644;51.068;5.860;2023-04-03T03:13:19;2.61;80.52
65058;HTU21D;51644;51.068;5.860;2023-04-03T03:14:19;2.59;80.58
65058;HTU21D;51644;51.068;5.860;2023-04-03T03:15:18;2.60;80.67
65058;HTU21D;51644;51.068;5.860;2023-04-03T03:16:17;2.60;80.69
65058;HTU21D;51644;51.068;5.860;2023-04-03T03:17:16;2.61;80.66
65058;HTU21D;51644;51.068;5.860;2023-04-03T03:18:15;2.60;80.66
65058;HTU21D;51644;51.068;5.860;2023-04-03T03:19:14;2.58;80.63
65058;HTU21D;51644;51.068;5.860;2023-04-03T03:20:13;2.58;80.60
65058;HTU21D;51644;51.068;5.860;2023-04-03T03:21:14;2.57;80.57
65058;HTU21D;51644;51.068;5.860;2023-04-03T03:22:13;2.56;80.56
65058;HTU21D;51644;51.068;5.860;2023-04-03T03:23:12;2.55;80.52
65058;HTU21D;51644;51.068;5.860;2023-04-03T03:24:10;2.54;80.49
65058;HTU21D;51644;51.068;5.860;2023-04-03T03:25:10;2.54;80.49
65058;HTU21D;51644;51.068;5.860;2023-04-03T03:26:10;2.53;80.55
65058;HTU21D;51644;51.068;5.860;2023-04-03T03:27:09;2.54;80.60
65058;HTU21D;51644;51.068;5.860;2023-04-03T03:28:08;2.53;80.64
65058;HTU21D;51644;51.068;5.860;2023-04-03T03:29:06;2.52;80.74
65058;HTU21D;51644;51.068;5.860;2023-04-03T03:30:05;2.53;80.77
65058;HTU21D;51644;51.068;5.860;2023-04-03T03:31:05;2.51;80.81
65058;HTU21D;51644;51.068;5.860;2023-04-03T03:32:07;2.51;80.80
65058;HTU21D;51644;51.068;5.860;2023-04-03T03:33:06;2.50;80.78
65058;HTU21D;51644;51.068;5.860;2023-04-03T03:34:05;2.49;80.72
65058;HTU21D;51644;51.068;5.860;2023-04-03T03:35:04;2.49;80.69
65058;HTU21D;51644;51.068;5.860;2023-04-03T03:36:03;2.45;80.73
65058;HTU21D;51644;51.068;5.860;2023-04-03T03:37:01;2.45;80.80
65058;HTU21D;51644;51.068;5.860;2023-04-03T03:38:00;2.45;80.83
65058;HTU21D;51644;51.068;5.860;2023-04-03T03:38:59;2.43;80.82
65058;HTU21D;51644;51.068;5.860;2023-04-03T03:39:58;2.42;80.78
65058;HTU21D;51644;51.068;5.860;2023-04-03T03:40:56;2.42;80.77
65058;HTU21D;51644;51.068;5.860;2023-04-03T03:41:56;2.40;80.78
65058;HTU21D;51644;51.068;5.860;2023-04-03T03:42:55;2.38;80.76
65058;HTU21D;51644;51.068;5.860;2023-04-03T03:43:53;2.36;80.76
65058;HTU21D;51644;51.068;5.860;2023-04-03T03:44:52;2.36;80.79
65058;HTU21D;51644;51.068;5.860;2023-04-03T03:45:52;2.35;80.84
65058;HTU21D;51644;51.068;5.860;2023-04-03T03:46:51;2.35;80.88
65058;HTU21D;51644;51.068;5.860;2023-04-03T03:47:49;2.34;80.90
65058;HTU21D;51644;51.068;5.860;2023-04-03T03:48:48;2.34;80.91
65058;HTU21D;51644;51.068;5.860;2023-04-03T03:49:47;2.32;80.91
65058;HTU21D;51644;51.068;5.860;2023-04-03T03:50:48;2.34;80.90
65058;HTU21D;51644;51.068;5.860;2023-04-03T03:51:47;2.35;80.93
65058;HTU21D;51644;51.068;5.860;2023-04-03T03:52:46;2.36;80.95
65058;HTU21D;51644;51.068;5.860;2023-04-03T03:53:44;2.36;80.94
65058;HTU21D;51644;51.068;5.860;2023-04-03T03:54:46;2.37;80.94
65058;HTU21D;51644;51.068;5.860;2023-04-03T03:55:45;2.38;80.92
65058;HTU21D;51644;51.068;5.860;2023-04-03T03:56:43;2.38;80.90
65058;HTU21D;51644;51.068;5.860;2023-04-03T03:57:42;2.37;80.86
65058;HTU21D;51644;51.068;5.860;2023-04-03T03:58:42;2.38;80.86
65058;HTU21D;51644;51.068;5.860;2023-04-03T03:59:40;2.38;80.88
65058;HTU21D;51644;51.068;5.860;2023-04-03T04:00:40;2.40;80.85
65058;HTU21D;51644;51.068;5.860;2023-04-03T04:01:39;2.40;80.87
65058;HTU21D;51644;51.068;5.860;2023-04-03T04:02:38;2.42;80.87
65058;HTU21D;51644;51.068;5.860;2023-04-03T04:03:40;2.42;80.87
65058;HTU21D;51644;51.068;5.860;2023-04-03T04:04:41;2.42;80.87
65058;HTU21D;51644;51.068;5.860;2023-04-03T04:05:39;2.43;80.84
65058;HTU21D;51644;51.068;5.860;2023-04-03T04:06:38;2.42;80.83
65058;HTU21D;51644;51.068;5.860;2023-04-03T04:07:40;2.43;80.83
65058;HTU21D;51644;51.068;5.860;2023-04-03T04:08:38;2.43;80.86
65058;HTU21D;51644;51.068;5.860;2023-04-03T04:09:39;2.41;80.89
65058;HTU21D;51644;51.068;5.860;2023-04-03T04:10:38;2.41;80.91
65058;HTU21D;51644;51.068;5.860;2023-04-03T04:11:40;2.40;81.04
65058;HTU21D;51644;51.068;5.860;2023-04-03T04:12:39;2.39;81.07
65058;HTU21D;51644;51.068;5.860;2023-04-03T04:13:55;2.38;81.12
65058;HTU21D;51644;51.068;5.860;2023-04-03T04:14:57;2.37;81.17
65058;HTU21D;51644;51.068;5.860;2023-04-03T04:15:56;2.37;81.22
65058;HTU21D;51644;51.068;5.860;2023-04-03T04:16:55;2.35;81.23
65058;HTU21D;51644;51.068;5.860;2023-04-03T04:17:57;2.34;81.27
65058;HTU21D;51644;51.068;5.860;2023-04-03T04:18:55;2.32;81.33
65058;HTU21D;51644;51.068;5.860;2023-04-03T04:19:54;2.29;81.43
65058;HTU21D;51644;51.068;5.860;2023-04-03T04:20:53;2.30;81.49
65058;HTU21D;51644;51.068;5.860;2023-04-03T04:21:55;2.29;81.58
65058;HTU21D;51644;51.068;5.860;2023-04-03T04:22:54;2.30;81.63
65058;HTU21D;51644;51.068;5.860;2023-04-03T04:23:54;2.30;81.66
65058;HTU21D;51644;51.068;5.860;2023-04-03T04:24:53;2.30;81.66
65058;HTU21D;51644;51.068;5.860;2023-04-03T04:25:51;2.29;81.66
65058;HTU21D;51644;51.068;5.860;2023-04-03T04:26:51;2.30;81.67
65058;HTU21D;51644;51.068;5.860;2023-04-03T04:27:50;2.29;81.71
65058;HTU21D;51644;51.068;5.860;2023-04-03T04:28:49;2.28;81.78
65058;HTU21D;51644;51.068;5.860;2023-04-03T04:29:49;2.28;81.77
65058;HTU21D;51644;51.068;5.860;2023-04-03T04:30:48;2.29;81.76
65058;HTU21D;51644;51.068;5.860;2023-04-03T04:31:48;2.29;81.75
65058;HTU21D;51644;51.068;5.860;2023-04-03T04:32:47;2.29;81.78
65058;HTU21D;51644;51.068;5.860;2023-04-03T04:33:46;2.29;81.81
65058;HTU21D;51644;51.068;5.860;2023-04-03T04:34:46;2.29;81.85
65058;HTU21D;51644;51.068;5.860;2023-04-03T04:35:47;2.29;81.84
65058;HTU21D;51644;51.068;5.860;2023-04-03T04:36:45;2.28;81.79
65058;HTU21D;51644;51.068;5.860;2023-04-03T04:37:44;2.27;81.81
65058;HTU21D;51644;51.068;5.860;2023-04-03T04:38:43;2.27;81.79
65058;HTU21D;51644;51.068;5.860;2023-04-03T04:39:42;2.27;81.76
65058;HTU21D;51644;51.068;5.860;2023-04-03T04:40:41;2.26;81.73
65058;HTU21D;51644;51.068;5.860;2023-04-03T04:41:40;2.26;81.76
65058;HTU21D;51644;51.068;5.860;2023-04-03T04:42:39;2.27;81.81
65058;HTU21D;51644;51.068;5.860;2023-04-03T04:43:38;2.26;81.84
65058;HTU21D;51644;51.068;5.860;2023-04-03T04:44:37;2.28;81.83
65058;HTU21D;51644;51.068;5.860;2023-04-03T04:45:35;2.26;81.84
65058;HTU21D;51644;51.068;5.860;2023-04-03T04:46:34;2.28;81.83
65058;HTU21D;51644;51.068;5.860;2023-04-03T04:47:34;2.26;81.84
65058;HTU21D;51644;51.068;5.860;2023-04-03T04:48:34;2.25;81.88
65058;HTU21D;51644;51.068;5.860;2023-04-03T04:49:32;2.25;81.95
65058;HTU21D;51644;51.068;5.860;2023-04-03T04:50:31;2.24;81.97
65058;HTU21D;51644;51.068;5.860;2023-04-03T04:51:29;2.21;81.98
65058;HTU21D;51644;51.068;5.860;2023-04-03T04:52:28;2.20;82.01
65058;HTU21D;51644;51.068;5.860;2023-04-03T04:53:27;2.19;82.09
65058;HTU21D;51644;51.068;5.860;2023-04-03T04:54:26;2.17;82.14
65058;HTU21D;51644;51.068;5.860;2023-04-03T04:55:24;2.14;82.21
65058;HTU21D;51644;51.068;5.860;2023-04-03T04:56:23;2.15;82.27
65058;HTU21D;51644;51.068;5.860;2023-04-03T04:57:22;2.14;82.27
65058;HTU21D;51644;51.068;5.860;2023-04-03T04:58:21;2.12;82.34
65058;HTU21D;51644;51.068;5.860;2023-04-03T04:59:19;2.10;82.39
65058;HTU21D;51644;51.068;5.860;2023-04-03T05:00:18;2.10;82.48
65058;HTU21D;51644;51.068;5.860;2023-04-03T05:01:17;2.11;82.47
65058;HTU21D;51644;51.068;5.860;2023-04-03T05:02:24;2.10;82.47
65058;HTU21D;51644;51.068;5.860;2023-04-03T05:03:23;2.10;82.49
65058;HTU21D;51644;51.068;5.860;2023-04-03T05:04:22;2.10;82.50
65058;HTU21D;51644;51.068;5.860;2023-04-03T05:05:24;2.09;82.50
65058;HTU21D;51644;51.068;5.860;2023-04-03T05:06:23;2.07;82.60
65058;HTU21D;51644;51.068;5.860;2023-04-03T05:07:23;2.06;82.62
65058;HTU21D;51644;51.068;5.860;2023-04-03T05:08:22;2.10;82.69
65058;HTU21D;51644;51.068;5.860;2023-04-03T05:09:21;2.09;82.65
65058;HTU21D;51644;51.068;5.860;2023-04-03T05:10:21;2.09;82.67
65058;HTU21D;51644;51.068;5.860;2023-04-03T05:11:20;2.10;82.71
65058;HTU21D;51644;51.068;5.860;2023-04-03T05:12:21;2.10;82.71
65058;HTU21D;51644;51.068;5.860;2023-04-03T05:13:26;2.10;82.71
65058;HTU21D;51644;51.068;5.860;2023-04-03T05:14:25;2.08;82.71
65058;HTU21D;51644;51.068;5.860;2023-04-03T05:15:25;2.08;82.70
65058;HTU21D;51644;51.068;5.860;2023-04-03T05:16:23;2.07;82.70
65058;HTU21D;51644;51.068;5.860;2023-04-03T05:17:26;2.07;82.71
65058;HTU21D;51644;51.068;5.860;2023-04-03T05:18:27;2.08;82.66
65058;HTU21D;51644;51.068;5.860;2023-04-03T05:19:28;2.08;82.68
65058;HTU21D;51644;51.068;5.860;2023-04-03T05:20:27;2.07;82.69
65058;HTU21D;51644;51.068;5.860;2023-04-03T05:21:26;2.09;82.68
65058;HTU21D;51644;51.068;5.860;2023-04-03T05:22:27;2.09;82.67
65058;HTU21D;51644;51.068;5.860;2023-04-03T05:23:31;2.09;82.65
65058;HTU21D;51644;51.068;5.860;2023-04-03T05:24:32;2.09;82.68
65058;HTU21D;51644;51.068;5.860;2023-04-03T05:25:32;2.11;82.69
65058;HTU21D;51644;51.068;5.860;2023-04-03T05:26:31;2.12;82.69
65058;HTU21D;51644;51.068;5.860;2023-04-03T05:27:29;2.13;82.70
65058;HTU21D;51644;51.068;5.860;2023-04-03T05:28:30;2.13;82.69
65058;HTU21D;51644;51.068;5.860;2023-04-03T05:29:29;2.14;82.69
65058;HTU21D;51644;51.068;5.860;2023-04-03T05:30:30;2.15;82.68
65058;HTU21D;51644;51.068;5.860;2023-04-03T05:31:29;2.16;82.61
65058;HTU21D;51644;51.068;5.860;2023-04-03T05:32:28;2.16;82.58
65058;HTU21D;51644;51.068;5.860;2023-04-03T05:33:39;2.19;82.58
65058;HTU21D;51644;51.068;5.860;2023-04-03T05:34:40;2.20;82.49
65058;HTU21D;51644;51.068;5.860;2023-04-03T05:35:39;2.21;82.46
65058;HTU21D;51644;51.068;5.860;2023-04-03T05:36:41;2.23;82.42
65058;HTU21D;51644;51.068;5.860;2023-04-03T05:37:41;2.23;82.34
65058;HTU21D;51644;51.068;5.860;2023-04-03T05:38:40;2.24;82.33
65058;HTU21D;51644;51.068;5.860;2023-04-03T05:39:39;2.25;82.29
65058;HTU21D;51644;51.068;5.860;2023-04-03T05:40:42;2.25;82.30
65058;HTU21D;51644;51.068;5.860;2023-04-03T05:41:41;2.26;82.26
65058;HTU21D;51644;51.068;5.860;2023-04-03T05:42:40;2.28;82.23
65058;HTU21D;51644;51.068;5.860;2023-04-03T05:43:39;2.30;82.16
65058;HTU21D;51644;51.068;5.860;2023-04-03T05:44:39;2.31;82.10
65058;HTU21D;51644;51.068;5.860;2023-04-03T05:45:39;2.32;82.08
65058;HTU21D;51644;51.068;5.860;2023-04-03T05:46:37;2.32;81.97
65058;HTU21D;51644;51.068;5.860;2023-04-03T05:47:38;2.36;81.88
65058;HTU21D;51644;51.068;5.860;2023-04-03T05:48:39;2.37;81.83
65058;HTU21D;51644;51.068;5.860;2023-04-03T05:49:38;2.38;81.80
65058;HTU21D;51644;51.068;5.860;2023-04-03T05:50:41;2.38;81.77
65058;HTU21D;51644;51.068;5.860;2023-04-03T05:51:42;2.39;81.75
65058;HTU21D;51644;51.068;5.860;2023-04-03T05:52:57;2.41;81.59
65058;HTU21D;51644;51.068;5.860;2023-04-03T05:54:25;2.42;81.51
65058;HTU21D;51644;51.068;5.860;2023-04-03T05:55:28;2.42;81.43
65058;HTU21D;51644;51.068;5.860;2023-04-03T05:56:27;2.44;81.48
65058;HTU21D;51644;51.068;5.860;2023-04-03T05:57:26;2.43;81.45
65058;HTU21D;51644;51.068;5.860;2023-04-03T05:58:25;2.43;81.36
65058;HTU21D;51644;51.068;5.860;2023-04-03T05:59:25;2.46;81.35
65058;HTU21D;51644;51.068;5.860;2023-04-03T06:00:26;2.49;81.27
65058;HTU21D;51644;51.068;5.860;2023-04-03T06:01:32;2.49;81.23
65058;HTU21D;51644;51.068;5.860;2023-04-03T06:02:33;2.51;81.22
65058;HTU21D;51644;51.068;5.860;2023-04-03T06:03:32;2.52;81.18
65058;HTU21D;51644;51.068;5.860;2023-04-03T06:04:31;2.52;81.17
65058;HTU21D;51644;51.068;5.860;2023-04-03T06:05:30;2.54;81.17
65058;HTU21D;51644;51.068;5.860;2023-04-03T06:06:49;2.55;81.13
65058;HTU21D;51644;51.068;5.860;2023-04-03T06:07:49;2.56;81.02
65058;HTU21D;51644;51.068;5.860;2023-04-03T06:08:48;2.58;80.95
65058;HTU21D;51644;51.068;5.860;2023-04-03T06:09:51;2.61;80.87
65058;HTU21D;51644;51.068;5.860;2023-04-03T06:10:50;2.59;80.85
65058;HTU21D;51644;51.068;5.860;2023-04-03T06:11:49;2.61;80.85
65058;HTU21D;51644;51.068;5.860;2023-04-03T06:12:51;2.62;80.78
65058;HTU21D;51644;51.068;5.860;2023-04-03T06:13:50;2.65;80.70
65058;HTU21D;51644;51.068;5.860;2023-04-03T06:14:50;2.66;80.66
65058;HTU21D;51644;51.068;5.860;2023-04-03T06:15:49;2.66;80.69
65058;HTU21D;51644;51.068;5.860;2023-04-03T06:16:49;2.68;80.63
65058;HTU21D;51644;51.068;5.860;2023-04-03T06:17:48;2.70;80.54
65058;HTU21D;51644;51.068;5.860;2023-04-03T06:18:46;2.71;80.51
65058;HTU21D;51644;51.068;5.860;2023-04-03T06:19:45;2.74;80.45
65058;HTU21D;51644;51.068;5.860;2023-04-03T06:20:45;2.74;80.49
65058;HTU21D;51644;51.068;5.860;2023-04-03T06:21:44;2.78;80.41
65058;HTU21D;51644;51.068;5.860;2023-04-03T06:22:42;2.76;80.44
65058;HTU21D;51644;51.068;5.860;2023-04-03T06:23:43;2.80;80.36
65058;HTU21D;51644;51.068;5.860;2023-04-03T06:24:41;2.83;80.27
65058;HTU21D;51644;51.068;5.860;2023-04-03T06:25:41;2.86;80.20